Airfield :
LOGIN :

Register | Disclaimer

   EN    FR    IT 

 










Legend :    VFR   Marginal VFR   IFR   Intensive IFR   Very Intensive IFR
Visi :
Ceiling :
>= 8 km
>= 3000ft
5 to 8 km
1000 to 3000 ft
1500m to 5 km
500 to 1000 ft
800 to 1500m
200 to 500 ft
< 800m
< 200 ft
Symbols :   Thunderstorms  Fog  Heavy snow  Heavy precipitations  Wind > 20 kt
SIGMETs :     Misc.  Thunderstorms  Icing  Turbulence  Mountain Waves  Volcanic Ashes







- Airport Elevation : 131 ft
- IATA code : TLL


EETN - Talinn

CURRENT METAR :
  • 250720Z 28006KT 240V340 CAVOK 18/10 Q1030 NOSIG

EXPIRED METARs :
  • 250650Z 30004KT 250V350 CAVOK 17/10 Q1030 NOSIG
  • 250620Z 32004KT 270V010 CAVOK 17/11 Q1030 NOSIG
  • 250550Z 26004KT 210V340 CAVOK 17/10 Q1030 NOSIG
  • 250520Z 31004KT 230V340 CAVOK 17/10 Q1030 NOSIG
  • 250450Z 29005KT CAVOK 16/10 Q1030 NOSIG

TAF TAF EETN
Valid from the 25 at 06:00 until the 26 at 06:00 UTC


250515Z 2506/2606 30007KT 9999 SCT040
BECMG 2518/2520 VRB02KT
PROB40
TEMPO 2523/2606 SCT025CB
No reported NOTAMs for that airfield.



MET'MAP, your aeronautical weather chart ! - Copyright ORBIFLY December 2007 - Disclaimer

ORBIFLY MET'MAP TEAM :

Programming & Development : Alexandra Zaïnal
Concept & Development : Baudouin d'Aumeries
Co-Development & Prog : Marc-Olivier Méhu
Technical & hardware support : Manuel Goepfert

Contact : metmap@orbifly.com




SOURCES & CREDITS :

   NOAA